Disclaimer

Please do not use the information listed here in-flight or in-navigation, as they are not provided to us by the airports but are provided by volunteers, so they might be outdated.

Search


Regions


Airport information page

Radio informations:
Approach/Tower (APP/TWR) - 118.1 MHz

Airport informations:
Latitude: 15° 28' 01.57" S
Longitude: 070° 09' 29.41" W
Elevation: 12552 feet - 3826 meters
Operating hours: Remarks
Operating agency: Civil government, landing fees and diplomatic clearance may be required
Timezone: UTC-5
Fuel: N/A

Runway information:
12/30 - 13779 x 150 feet< - >4200 x 46 meters

Recent METARs:
SPJL 122100Z 35010KT 9999 SCT010 BKN100 17/00 Q1028 RMK PP000
SPJL 122200Z 12010KT 9999 SCT010 BKN100 15/02 Q1029 Q1029 RMK T.MAX 19.4 PP000
SPJL 122200Z 12010KT 9999 SCT010 BKN100 15/02 Q1029 Q1029 RMK T.MAX 19.4 PP000

Airport on the map: